sensor_id;sensor_type;location;lat;lon;timestamp;pressure;altitude;pressure_sealevel;temperature;humidity
76086;BME280;64791;0.000;0.000;2023-11-21T00:00:44;93638.28;;;5.47;61.72
76086;BME280;64791;0.000;0.000;2023-11-21T00:03:11;93642.47;;;5.35;62.44
76086;BME280;64791;0.000;0.000;2023-11-21T00:05:40;93646.25;;;6.47;60.82
76086;BME280;64791;0.000;0.000;2023-11-21T00:08:07;93636.84;;;7.83;57.72
76086;BME280;64791;0.000;0.000;2023-11-21T00:10:32;93635.56;;;8.05;56.21
76086;BME280;64791;0.000;0.000;2023-11-21T00:12:58;93633.75;;;7.66;56.61
76086;BME280;64791;0.000;0.000;2023-11-21T00:15:24;93637.75;;;7.11;57.95
76086;BME280;64791;0.000;0.000;2023-11-21T00:17:49;93646.03;;;6.71;58.64
76086;BME280;64791;0.000;0.000;2023-11-21T00:20:15;93646.47;;;6.36;59.54
76086;BME280;64791;0.000;0.000;2023-11-21T00:22:41;93645.59;;;6.02;60.36
76086;BME280;64791;0.000;0.000;2023-11-21T00:25:06;93643.03;;;5.78;60.83
76086;BME280;64791;0.000;0.000;2023-11-21T00:27:34;93642.63;;;5.55;61.38
76086;BME280;64791;0.000;0.000;2023-11-21T00:30:00;93645.94;;;5.35;62.03
76086;BME280;64791;0.000;0.000;2023-11-21T00:32:26;93642.47;;;5.35;62.65
76086;BME280;64791;0.000;0.000;2023-11-21T00:34:51;93645.00;;;6.61;60.70
76086;BME280;64791;0.000;0.000;2023-11-21T00:37:17;93631.34;;;7.83;57.46
76086;BME280;64791;0.000;0.000;2023-11-21T00:39:42;93626.88;;;8.21;55.87
76086;BME280;64791;0.000;0.000;2023-11-21T00:42:08;93624.94;;;7.81;55.73
76086;BME280;64791;0.000;0.000;2023-11-21T00:44:37;93620.41;;;7.29;56.76
76086;BME280;64791;0.000;0.000;2023-11-21T00:47:03;93622.63;;;6.84;57.76
76086;BME280;64791;0.000;0.000;2023-11-21T00:49:29;93622.66;;;6.44;58.61
76086;BME280;64791;0.000;0.000;2023-11-21T00:51:54;93626.34;;;6.08;60.02
76086;BME280;64791;0.000;0.000;2023-11-21T00:54:20;93631.47;;;5.85;60.15
76086;BME280;64791;0.000;0.000;2023-11-21T00:56:46;93632.03;;;5.65;60.50
76086;BME280;64791;0.000;0.000;2023-11-21T00:59:14;93639.78;;;5.48;61.32
76086;BME280;64791;0.000;0.000;2023-11-21T01:01:40;93639.72;;;6.37;60.60
76086;BME280;64791;0.000;0.000;2023-11-21T01:04:06;93637.38;;;7.82;57.43
76086;BME280;64791;0.000;0.000;2023-11-21T01:06:34;93618.63;;;8.42;55.16
76086;BME280;64791;0.000;0.000;2023-11-21T01:09:00;93618.63;;;7.93;55.66
76086;BME280;64791;0.000;0.000;2023-11-21T01:11:26;93619.75;;;7.36;56.77
76086;BME280;64791;0.000;0.000;2023-11-21T01:13:52;93612.50;;;6.79;57.92
76086;BME280;64791;0.000;0.000;2023-11-21T01:16:18;93620.88;;;6.34;59.10
76086;BME280;64791;0.000;0.000;2023-11-21T01:18:44;93617.06;;;5.97;59.61
76086;BME280;64791;0.000;0.000;2023-11-21T01:21:11;93616.88;;;5.64;60.64
76086;BME280;64791;0.000;0.000;2023-11-21T01:23:37;93620.16;;;5.62;61.70
76086;BME280;64791;0.000;0.000;2023-11-21T01:26:02;93604.25;;;6.92;59.39
76086;BME280;64791;0.000;0.000;2023-11-21T01:28:28;93607.91;;;8.31;55.35
76086;BME280;64791;0.000;0.000;2023-11-21T01:30:54;93607.63;;;8.14;54.55
76086;BME280;64791;0.000;0.000;2023-11-21T01:33:22;93624.78;;;7.66;55.33
76086;BME280;64791;0.000;0.000;2023-11-21T01:35:49;93626.41;;;6.94;57.40
76086;BME280;64791;0.000;0.000;2023-11-21T01:38:14;93628.78;;;6.50;58.14
76086;BME280;64791;0.000;0.000;2023-11-21T01:40:40;93618.00;;;6.13;58.87
76086;BME280;64791;0.000;0.000;2023-11-21T01:43:06;93619.34;;;5.80;59.74
76086;BME280;64791;0.000;0.000;2023-11-21T01:45:31;93616.84;;;5.51;60.62
76086;BME280;64791;0.000;0.000;2023-11-21T01:47:59;93615.34;;;5.37;61.13
76086;BME280;64791;0.000;0.000;2023-11-21T01:50:26;93617.50;;;6.41;60.05
76086;BME280;64791;0.000;0.000;2023-11-21T01:52:52;93616.69;;;7.60;55.80
76086;BME280;64791;0.000;0.000;2023-11-21T01:55:18;93620.06;;;7.87;54.91
76086;BME280;64791;0.000;0.000;2023-11-21T01:57:45;93617.94;;;7.38;55.37
76086;BME280;64791;0.000;0.000;2023-11-21T02:00:11;93612.91;;;6.83;56.71
76086;BME280;64791;0.000;0.000;2023-11-21T02:02:44;93596.03;;;6.45;57.40
76086;BME280;64791;0.000;0.000;2023-11-21T02:05:11;93597.91;;;5.97;58.73
76086;BME280;64791;0.000;0.000;2023-11-21T02:07:38;93607.75;;;5.61;59.05
76086;BME280;64791;0.000;0.000;2023-11-21T02:10:04;93603.41;;;5.66;60.66
76086;BME280;64791;0.000;0.000;2023-11-21T02:12:31;93604.06;;;6.90;58.01
76086;BME280;64791;0.000;0.000;2023-11-21T02:14:56;93591.81;;;8.07;55.09
76086;BME280;64791;0.000;0.000;2023-11-21T02:17:22;93588.66;;;7.95;54.42
76086;BME280;64791;0.000;0.000;2023-11-21T02:19:48;93598.09;;;7.45;55.29
76086;BME280;64791;0.000;0.000;2023-11-21T02:22:17;93608.38;;;6.85;56.86
76086;BME280;64791;0.000;0.000;2023-11-21T02:24:45;93601.50;;;6.45;57.40
76086;BME280;64791;0.000;0.000;2023-11-21T02:27:12;93605.25;;;6.03;58.78
76086;BME280;64791;0.000;0.000;2023-11-21T02:29:38;93603.63;;;5.68;59.89
76086;BME280;64791;0.000;0.000;2023-11-21T02:32:04;93614.31;;;5.40;60.33
76086;BME280;64791;0.000;0.000;2023-11-21T02:34:30;93613.19;;;6.19;59.78
76086;BME280;64791;0.000;0.000;2023-11-21T02:36:56;93606.78;;;7.57;56.69
76086;BME280;64791;0.000;0.000;2023-11-21T02:39:22;93599.81;;;7.97;54.79
76086;BME280;64791;0.000;0.000;2023-11-21T02:41:49;93612.63;;;7.54;55.07
76086;BME280;64791;0.000;0.000;2023-11-21T02:44:15;93601.09;;;7.01;55.95
76086;BME280;64791;0.000;0.000;2023-11-21T02:46:41;93606.31;;;6.52;57.42
76086;BME280;64791;0.000;0.000;2023-11-21T02:49:06;93603.41;;;6.11;58.61
76086;BME280;64791;0.000;0.000;2023-11-21T02:51:33;93612.19;;;5.77;59.01
76086;BME280;64791;0.000;0.000;2023-11-21T02:53:58;93617.25;;;5.42;59.98
76086;BME280;64791;0.000;0.000;2023-11-21T02:56:27;93603.56;;;5.86;59.94
76086;BME280;64791;0.000;0.000;2023-11-21T02:58:55;93612.41;;;7.18;57.00
76086;BME280;64791;0.000;0.000;2023-11-21T03:01:21;93600.00;;;7.99;54.85
76086;BME280;64791;0.000;0.000;2023-11-21T03:03:46;93598.56;;;7.78;54.58
76086;BME280;64791;0.000;0.000;2023-11-21T03:06:13;93605.34;;;7.22;55.69
76086;BME280;64791;0.000;0.000;2023-11-21T03:08:39;93610.75;;;6.68;56.25
76086;BME280;64791;0.000;0.000;2023-11-21T03:11:04;93614.66;;;6.20;57.86
76086;BME280;64791;0.000;0.000;2023-11-21T03:13:30;93606.19;;;5.79;58.88
76086;BME280;64791;0.000;0.000;2023-11-21T03:15:57;93605.19;;;5.50;59.76
76086;BME280;64791;0.000;0.000;2023-11-21T03:18:23;93596.72;;;5.80;60.26
76086;BME280;64791;0.000;0.000;2023-11-21T03:20:48;93600.25;;;6.93;57.37
76086;BME280;64791;0.000;0.000;2023-11-21T03:23:14;93587.47;;;8.11;54.19
76086;BME280;64791;0.000;0.000;2023-11-21T03:25:40;93583.81;;;7.88;53.99
76086;BME280;64791;0.000;0.000;2023-11-21T03:28:06;93585.09;;;7.25;55.03
76086;BME280;64791;0.000;0.000;2023-11-21T03:30:35;93608.81;;;6.76;55.73
76086;BME280;64791;0.000;0.000;2023-11-21T03:33:00;93610.97;;;6.31;56.98
76086;BME280;64791;0.000;0.000;2023-11-21T03:35:26;93605.78;;;5.88;58.03
76086;BME280;64791;0.000;0.000;2023-11-21T03:37:51;93607.06;;;5.55;59.05
76086;BME280;64791;0.000;0.000;2023-11-21T03:40:17;93613.06;;;5.98;59.28
76086;BME280;64791;0.000;0.000;2023-11-21T03:42:43;93613.13;;;7.31;56.65
76086;BME280;64791;0.000;0.000;2023-11-21T03:56:29;93603.47;;;6.05;58.02
76086;BME280;64791;0.000;0.000;2023-11-21T03:58:55;93608.59;;;5.69;59.01
76086;BME280;64791;0.000;0.000;2023-11-21T04:01:21;93598.53;;;5.46;59.69
76086;BME280;64791;0.000;0.000;2023-11-21T04:03:47;93588.84;;;6.42;58.50
76086;BME280;64791;0.000;0.000;2023-11-21T04:18:58;93581.91;;;6.15;57.41
76086;BME280;64791;0.000;0.000;2023-11-21T04:21:24;93581.78;;;5.81;58.26
76086;BME280;64791;0.000;0.000;2023-11-21T04:23:49;93569.63;;;5.50;59.48
76086;BME280;64791;0.000;0.000;2023-11-21T04:26:15;93570.31;;;6.35;58.70
76086;BME280;64791;0.000;0.000;2023-11-21T04:41:43;93583.03;;;6.32;57.02
76086;BME280;64791;0.000;0.000;2023-11-21T04:44:08;93579.38;;;5.90;57.98
76086;BME280;64791;0.000;0.000;2023-11-21T04:46:34;93575.63;;;5.62;58.77
76086;BME280;64791;0.000;0.000;2023-11-21T04:48:59;93579.47;;;5.40;59.25
76086;BME280;64791;0.000;0.000;2023-11-21T04:51:26;93595.41;;;6.13;58.75
76086;BME280;64791;0.000;0.000;2023-11-21T05:06:57;93586.72;;;5.82;58.87
76086;BME280;64791;0.000;0.000;2023-11-21T05:09:24;93599.53;;;5.61;59.07
76086;BME280;64791;0.000;0.000;2023-11-21T05:11:50;93591.97;;;5.36;59.46
76086;BME280;64791;0.000;0.000;2023-11-21T05:14:16;93599.91;;;6.10;59.38
76086;BME280;64791;0.000;0.000;2023-11-21T08:50:20;93587.91;;;11.95;54.21
76086;BME280;64791;0.000;0.000;2023-11-21T08:52:47;93591.00;;;12.06;53.83
76086;BME280;64791;0.000;0.000;2023-11-21T08:55:13;93584.84;;;12.16;53.67
76086;BME280;64791;0.000;0.000;2023-11-21T08:57:39;93592.84;;;12.29;53.68
76086;BME280;64791;0.000;0.000;2023-11-21T09:00:07;93585.88;;;12.45;53.42
76086;BME280;64791;0.000;0.000;2023-11-21T09:02:36;93578.00;;;12.58;53.11
76086;BME280;64791;0.000;0.000;2023-11-21T09:05:07;93571.41;;;12.71;52.69
76086;BME280;64791;0.000;0.000;2023-11-21T09:07:34;93567.41;;;12.81;52.58
76086;BME280;64791;0.000;0.000;2023-11-21T09:10:01;93565.06;;;12.95;52.44
76086;BME280;64791;0.000;0.000;2023-11-21T09:12:27;93560.28;;;13.22;52.21
76086;BME280;64791;0.000;0.000;2023-11-21T09:14:53;93551.88;;;13.47;51.62
76086;BME280;64791;0.000;0.000;2023-11-21T09:17:19;93545.09;;;13.67;51.06
76086;BME280;64791;0.000;0.000;2023-11-21T09:19:45;93540.06;;;13.83;50.79
76086;BME280;64791;0.000;0.000;2023-11-21T09:22:15;93527.53;;;13.91;50.36
76086;BME280;64791;0.000;0.000;2023-11-21T09:24:41;93524.66;;;13.99;50.78
76086;BME280;64791;0.000;0.000;2023-11-21T09:27:08;93500.00;;;14.03;50.71
76086;BME280;64791;0.000;0.000;2023-11-21T09:29:35;93490.41;;;14.13;50.49
76086;BME280;64791;0.000;0.000;2023-11-21T09:32:00;93478.44;;;14.30;50.25
76086;BME280;64791;0.000;0.000;2023-11-21T09:34:26;93470.28;;;14.42;49.90
76086;BME280;64791;0.000;0.000;2023-11-21T09:36:52;93460.38;;;14.58;49.78
76086;BME280;64791;0.000;0.000;2023-11-21T09:39:19;93456.56;;;14.72;49.62
76086;BME280;64791;0.000;0.000;2023-11-21T09:41:57;93454.22;;;14.88;49.50
76086;BME280;64791;0.000;0.000;2023-11-21T09:44:45;93462.69;;;14.99;49.18
76086;BME280;64791;0.000;0.000;2023-11-21T09:47:11;93470.09;;;15.06;49.02
76086;BME280;64791;0.000;0.000;2023-11-21T09:49:39;93462.50;;;15.17;48.95
76086;BME280;64791;0.000;0.000;2023-11-21T09:52:05;93454.84;;;15.27;49.09
76086;BME280;64791;0.000;0.000;2023-11-21T09:54:33;93454.38;;;15.40;49.18
76086;BME280;64791;0.000;0.000;2023-11-21T09:56:59;93444.84;;;15.52;48.56
76086;BME280;64791;0.000;0.000;2023-11-21T09:59:25;93429.31;;;15.59;48.26
76086;BME280;64791;0.000;0.000;2023-11-21T10:01:55;93423.72;;;15.68;48.06
76086;BME280;64791;0.000;0.000;2023-11-21T10:04:24;93417.06;;;15.83;48.25
76086;BME280;64791;0.000;0.000;2023-11-21T10:06:50;93407.53;;;16.07;47.70
76086;BME280;64791;0.000;0.000;2023-11-21T10:09:15;93401.13;;;16.37;46.77
76086;BME280;64791;0.000;0.000;2023-11-21T10:11:42;93388.25;;;16.75;46.64
76086;BME280;64791;0.000;0.000;2023-11-21T10:14:12;93380.47;;;17.17;46.00
76086;BME280;64791;0.000;0.000;2023-11-21T10:16:39;93381.84;;;17.63;45.47
76086;BME280;64791;0.000;0.000;2023-11-21T10:19:06;93386.19;;;18.00;44.64
76086;BME280;64791;0.000;0.000;2023-11-21T10:21:35;93389.78;;;18.26;44.39
76086;BME280;64791;0.000;0.000;2023-11-21T10:24:01;93381.94;;;18.48;43.78
76086;BME280;64791;0.000;0.000;2023-11-21T10:26:27;93382.00;;;18.61;43.65
76086;BME280;64791;0.000;0.000;2023-11-21T10:29:00;93377.59;;;18.70;43.64
76086;BME280;64791;0.000;0.000;2023-11-21T10:31:26;93384.88;;;18.75;43.86
76086;BME280;64791;0.000;0.000;2023-11-21T10:33:52;93381.91;;;18.84;43.63
76086;BME280;64791;0.000;0.000;2023-11-21T10:36:28;93380.00;;;19.01;43.65
76086;BME280;64791;0.000;0.000;2023-11-21T10:38:54;93375.84;;;19.02;43.43
76086;BME280;64791;0.000;0.000;2023-11-21T10:41:20;93377.44;;;18.79;43.59
76086;BME280;64791;0.000;0.000;2023-11-21T10:43:46;93377.41;;;18.54;43.61
76086;BME280;64791;0.000;0.000;2023-11-21T10:46:12;93378.22;;;18.32;44.30
76086;BME280;64791;0.000;0.000;2023-11-21T10:48:38;93370.63;;;18.09;44.96
76086;BME280;64791;0.000;0.000;2023-11-21T10:51:07;93370.88;;;18.01;45.00
76086;BME280;64791;0.000;0.000;2023-11-21T10:53:38;93371.25;;;17.96;45.48
76086;BME280;64791;0.000;0.000;2023-11-21T10:56:05;93363.88;;;17.89;45.06
76086;BME280;64791;0.000;0.000;2023-11-21T10:58:35;93366.06;;;17.79;45.28
76086;BME280;64791;0.000;0.000;2023-11-21T11:01:02;93361.47;;;17.72;45.63
76086;BME280;64791;0.000;0.000;2023-11-21T11:03:30;93357.34;;;17.61;45.88
76086;BME280;64791;0.000;0.000;2023-11-21T11:05:59;93356.28;;;17.55;46.10
76086;BME280;64791;0.000;0.000;2023-11-21T11:08:24;93352.16;;;17.44;46.23
76086;BME280;64791;0.000;0.000;2023-11-21T11:10:52;93354.56;;;17.38;46.70
76086;BME280;64791;0.000;0.000;2023-11-21T11:13:18;93346.41;;;17.30;46.68
76086;BME280;64791;0.000;0.000;2023-11-21T11:15:48;93351.63;;;17.24;46.92
76086;BME280;64791;0.000;0.000;2023-11-21T11:18:14;93357.56;;;17.19;47.08
76086;BME280;64791;0.000;0.000;2023-11-21T11:20:41;93352.47;;;17.15;47.18
76086;BME280;64791;0.000;0.000;2023-11-21T11:23:13;93344.00;;;17.13;46.94
76086;BME280;64791;0.000;0.000;2023-11-21T11:25:49;93337.56;;;17.11;47.13
76086;BME280;64791;0.000;0.000;2023-11-21T11:28:19;93346.03;;;17.13;46.97
76086;BME280;64791;0.000;0.000;2023-11-21T11:31:04;93340.97;;;17.09;46.92
76086;BME280;64791;0.000;0.000;2023-11-21T11:36:08;93315.88;;;17.09;46.71
76086;BME280;64791;0.000;0.000;2023-11-21T11:38:37;93313.81;;;17.10;46.96
76086;BME280;64791;0.000;0.000;2023-11-21T11:41:03;93308.38;;;17.12;46.68
76086;BME280;64791;0.000;0.000;2023-11-21T11:43:32;93302.81;;;17.12;47.00
76086;BME280;64791;0.000;0.000;2023-11-21T11:45:59;93291.66;;;17.12;47.34
76086;BME280;64791;0.000;0.000;2023-11-21T11:48:25;93300.75;;;17.12;47.06
76086;BME280;64791;0.000;0.000;2023-11-21T11:51:06;93288.75;;;17.10;46.98
76086;BME280;64791;0.000;0.000;2023-11-21T11:53:38;93279.88;;;17.02;46.60
76086;BME280;64791;0.000;0.000;2023-11-21T11:58:51;93271.88;;;16.85;46.70
76086;BME280;64791;0.000;0.000;2023-11-21T12:01:21;93293.78;;;16.79;47.19
76086;BME280;64791;0.000;0.000;2023-11-21T12:06:34;93301.03;;;16.60;47.83
76086;BME280;64791;0.000;0.000;2023-11-21T12:09:01;93306.81;;;16.53;47.96
76086;BME280;64791;0.000;0.000;2023-11-21T12:11:32;93310.53;;;16.46;47.94
76086;BME280;64791;0.000;0.000;2023-11-21T12:13:58;93309.44;;;16.39;48.18
76086;BME280;64791;0.000;0.000;2023-11-21T12:16:27;93308.31;;;16.33;48.52
76086;BME280;64791;0.000;0.000;2023-11-21T12:18:53;93302.09;;;16.23;48.30
76086;BME280;64791;0.000;0.000;2023-11-21T12:21:23;93308.16;;;16.19;48.81
76086;BME280;64791;0.000;0.000;2023-11-21T12:23:48;93302.19;;;16.13;48.75
76086;BME280;64791;0.000;0.000;2023-11-21T12:26:14;93328.91;;;16.07;49.11
76086;BME280;64791;0.000;0.000;2023-11-21T12:28:40;93342.28;;;15.99;49.08
76086;BME280;64791;0.000;0.000;2023-11-21T12:31:06;93334.75;;;15.90;48.96
76086;BME280;64791;0.000;0.000;2023-11-21T12:33:34;93309.16;;;15.81;49.46
76086;BME280;64791;0.000;0.000;2023-11-21T12:36:00;93310.69;;;15.73;49.57
76086;BME280;64791;0.000;0.000;2023-11-21T12:38:33;93308.19;;;15.77;49.74
76086;BME280;64791;0.000;0.000;2023-11-21T12:40:59;93327.53;;;15.75;49.28
76086;BME280;64791;0.000;0.000;2023-11-21T12:43:25;93338.25;;;15.69;49.54
76086;BME280;64791;0.000;0.000;2023-11-21T12:45:51;93341.97;;;15.62;49.43
76086;BME280;64791;0.000;0.000;2023-11-21T12:48:31;93340.25;;;15.47;49.63
76086;BME280;64791;0.000;0.000;2023-11-21T12:50:57;93340.59;;;15.32;49.99
76086;BME280;64791;0.000;0.000;2023-11-21T12:53:25;93339.06;;;15.20;50.21
76086;BME280;64791;0.000;0.000;2023-11-21T12:55:51;93325.38;;;15.12;50.54
76086;BME280;64791;0.000;0.000;2023-11-21T12:58:17;93312.09;;;15.10;51.02
76086;BME280;64791;0.000;0.000;2023-11-21T13:00:46;93310.78;;;15.02;50.95
76086;BME280;64791;0.000;0.000;2023-11-21T13:03:13;93306.16;;;14.95;50.76
76086;BME280;64791;0.000;0.000;2023-11-21T13:05:45;93299.00;;;14.92;51.19
76086;BME280;64791;0.000;0.000;2023-11-21T13:08:12;93285.97;;;14.94;50.98
76086;BME280;64791;0.000;0.000;2023-11-21T13:10:39;93286.44;;;14.91;50.95
76086;BME280;64791;0.000;0.000;2023-11-21T13:13:06;93292.13;;;14.93;51.28
76086;BME280;64791;0.000;0.000;2023-11-21T13:15:34;93290.53;;;14.90;51.23
76086;BME280;64791;0.000;0.000;2023-11-21T13:18:02;93275.34;;;14.91;51.32
76086;BME280;64791;0.000;0.000;2023-11-21T13:20:27;93278.69;;;14.89;51.03
76086;BME280;64791;0.000;0.000;2023-11-21T13:22:58;93279.41;;;14.90;51.16
76086;BME280;64791;0.000;0.000;2023-11-21T13:25:25;93290.38;;;14.88;51.16
76086;BME280;64791;0.000;0.000;2023-11-21T13:27:54;93286.00;;;14.85;51.11
76086;BME280;64791;0.000;0.000;2023-11-21T13:30:19;93279.59;;;14.82;51.29
76086;BME280;64791;0.000;0.000;2023-11-21T13:33:01;93285.03;;;14.80;51.14
76086;BME280;64791;0.000;0.000;2023-11-21T13:35:27;93277.72;;;14.75;51.23
76086;BME280;64791;0.000;0.000;2023-11-21T13:38:03;93276.44;;;14.67;51.39
76086;BME280;64791;0.000;0.000;2023-11-21T13:40:29;93271.06;;;14.59;51.70
76086;BME280;64791;0.000;0.000;2023-11-21T13:42:55;93275.63;;;14.55;51.64
76086;BME280;64791;0.000;0.000;2023-11-21T13:45:24;93270.50;;;14.42;51.47
76086;BME280;64791;0.000;0.000;2023-11-21T13:47:53;93267.44;;;14.37;51.78
76086;BME280;64791;0.000;0.000;2023-11-21T13:50:23;93262.06;;;14.30;51.89
76086;BME280;64791;0.000;0.000;2023-11-21T13:52:52;93274.63;;;14.21;52.02
76086;BME280;64791;0.000;0.000;2023-11-21T13:55:19;93269.84;;;14.12;52.14
76086;BME280;64791;0.000;0.000;2023-11-21T13:57:45;93264.31;;;14.03;52.47
76086;BME280;64791;0.000;0.000;2023-11-21T14:00:17;93270.00;;;13.95;52.48
76086;BME280;64791;0.000;0.000;2023-11-21T14:03:02;93269.00;;;13.81;52.83
76086;BME280;64791;0.000;0.000;2023-11-21T14:05:28;93258.06;;;13.74;52.85
76086;BME280;64791;0.000;0.000;2023-11-21T14:07:57;93271.19;;;13.64;53.28
76086;BME280;64791;0.000;0.000;2023-11-21T14:10:29;93270.31;;;13.51;53.16
76086;BME280;64791;0.000;0.000;2023-11-21T14:13:05;93259.66;;;13.38;53.50
76086;BME280;64791;0.000;0.000;2023-11-21T14:15:31;93260.78;;;13.26;53.55
76086;BME280;64791;0.000;0.000;2023-11-21T14:17:58;93265.56;;;13.16;54.07
76086;BME280;64791;0.000;0.000;2023-11-21T14:20:25;93257.09;;;13.04;54.16
76086;BME280;64791;0.000;0.000;2023-11-21T14:22:50;93262.44;;;12.93;54.44
76086;BME280;64791;0.000;0.000;2023-11-21T14:25:17;93265.91;;;12.83;54.53
76086;BME280;64791;0.000;0.000;2023-11-21T14:27:43;93264.72;;;12.67;54.33
76086;BME280;64791;0.000;0.000;2023-11-21T14:30:09;93276.56;;;12.51;54.80
76086;BME280;64791;0.000;0.000;2023-11-21T14:32:38;93267.97;;;12.47;55.09
76086;BME280;64791;0.000;0.000;2023-11-21T14:35:04;93264.56;;;12.39;54.95
76086;BME280;64791;0.000;0.000;2023-11-21T14:37:30;93266.16;;;12.32;55.16
76086;BME280;64791;0.000;0.000;2023-11-21T14:39:56;93263.06;;;12.28;55.17
76086;BME280;64791;0.000;0.000;2023-11-21T14:42:22;93258.38;;;12.21;55.05
76086;BME280;64791;0.000;0.000;2023-11-21T14:44:51;93255.41;;;12.10;55.47
76086;BME280;64791;0.000;0.000;2023-11-21T14:47:17;93256.06;;;12.00;55.32
76086;BME280;64791;0.000;0.000;2023-11-21T14:49:50;93265.16;;;11.93;55.57
76086;BME280;64791;0.000;0.000;2023-11-21T14:52:24;93250.13;;;11.87;55.78
76086;BME280;64791;0.000;0.000;2023-11-21T14:55:03;93254.00;;;11.74;55.87
76086;BME280;64791;0.000;0.000;2023-11-21T14:57:58;93261.47;;;11.64;56.08
76086;BME280;64791;0.000;0.000;2023-11-21T15:00:28;93254.97;;;11.52;55.70
76086;BME280;64791;0.000;0.000;2023-11-21T15:03:06;93254.34;;;11.44;55.74
76086;BME280;64791;0.000;0.000;2023-11-21T15:05:34;93257.50;;;11.41;56.27
76086;BME280;64791;0.000;0.000;2023-11-21T15:08:00;93249.78;;;11.39;56.19
76086;BME280;64791;0.000;0.000;2023-11-21T15:10:59;93246.38;;;11.31;56.03
76086;BME280;64791;0.000;0.000;2023-11-21T15:13:25;93240.63;;;11.19;56.45
76086;BME280;64791;0.000;0.000;2023-11-21T15:15:53;93239.00;;;11.16;56.42
76086;BME280;64791;0.000;0.000;2023-11-21T15:18:23;93245.16;;;11.07;56.56
76086;BME280;64791;0.000;0.000;2023-11-21T15:20:50;93250.19;;;11.01;56.59
76086;BME280;64791;0.000;0.000;2023-11-21T15:23:16;93255.44;;;10.90;57.21
76086;BME280;64791;0.000;0.000;2023-11-21T15:25:44;93251.69;;;10.78;57.11
76086;BME280;64791;0.000;0.000;2023-11-21T15:28:13;93247.69;;;10.71;57.30
76086;BME280;64791;0.000;0.000;2023-11-21T15:30:39;93245.84;;;10.66;57.43
76086;BME280;64791;0.000;0.000;2023-11-21T15:33:05;93246.50;;;10.57;57.13
76086;BME280;64791;0.000;0.000;2023-11-21T15:35:33;93246.94;;;10.46;57.35
76086;BME280;64791;0.000;0.000;2023-11-21T15:38:03;93247.72;;;10.39;57.47
76086;BME280;64791;0.000;0.000;2023-11-21T15:40:29;93253.66;;;10.35;57.81
76086;BME280;64791;0.000;0.000;2023-11-21T15:42:57;93260.09;;;10.30;57.99
76086;BME280;64791;0.000;0.000;2023-11-21T15:45:23;93236.81;;;10.24;58.03
76086;BME280;64791;0.000;0.000;2023-11-21T15:47:51;93245.31;;;10.18;57.90
76086;BME280;64791;0.000;0.000;2023-11-21T15:50:19;93235.06;;;10.11;57.95
76086;BME280;64791;0.000;0.000;2023-11-21T15:52:44;93233.81;;;10.05;58.33
76086;BME280;64791;0.000;0.000;2023-11-21T15:55:11;93228.53;;;9.99;58.41
76086;BME280;64791;0.000;0.000;2023-11-21T15:57:38;93233.88;;;9.97;58.33
76086;BME280;64791;0.000;0.000;2023-11-21T16:00:04;93216.31;;;9.85;58.51
76086;BME280;64791;0.000;0.000;2023-11-21T16:02:40;93223.47;;;9.80;58.38
76086;BME280;64791;0.000;0.000;2023-11-21T16:05:06;93213.09;;;9.71;58.53
76086;BME280;64791;0.000;0.000;2023-11-21T16:07:32;93211.22;;;9.74;58.95
76086;BME280;64791;0.000;0.000;2023-11-21T16:10:00;93217.94;;;9.56;58.85
76086;BME280;64791;0.000;0.000;2023-11-21T16:12:26;93217.94;;;9.56;58.93
76086;BME280;64791;0.000;0.000;2023-11-21T16:14:51;93208.94;;;9.55;58.83
76086;BME280;64791;0.000;0.000;2023-11-21T16:17:17;93199.41;;;9.56;58.83
76086;BME280;64791;0.000;0.000;2023-11-21T16:19:43;93192.97;;;9.54;58.95
76086;BME280;64791;0.000;0.000;2023-11-21T16:22:09;93194.59;;;9.57;58.65
76086;BME280;64791;0.000;0.000;2023-11-21T16:24:36;93191.50;;;9.53;58.71
76086;BME280;64791;0.000;0.000;2023-11-21T16:27:03;93193.75;;;9.47;58.72
76086;BME280;64791;0.000;0.000;2023-11-21T16:29:29;93208.66;;;9.36;59.49
76086;BME280;64791;0.000;0.000;2023-11-21T16:31:58;93201.16;;;9.29;59.53
76086;BME280;64791;0.000;0.000;2023-11-21T16:34:26;93203.00;;;9.27;59.20
76086;BME280;64791;0.000;0.000;2023-11-21T16:36:52;93205.22;;;9.21;59.02
76086;BME280;64791;0.000;0.000;2023-11-21T16:39:18;93197.72;;;9.14;59.75
76086;BME280;64791;0.000;0.000;2023-11-21T16:41:45;93194.97;;;9.06;59.88
76086;BME280;64791;0.000;0.000;2023-11-21T16:44:14;93198.47;;;9.07;59.37
76086;BME280;64791;0.000;0.000;2023-11-21T16:46:44;93191.88;;;9.02;59.88
76086;BME280;64791;0.000;0.000;2023-11-21T16:49:15;93198.66;;;9.01;59.96
76086;BME280;64791;0.000;0.000;2023-11-21T16:51:42;93192.97;;;8.99;59.53
76086;BME280;64791;0.000;0.000;2023-11-21T16:54:07;93190.44;;;8.93;59.69
76086;BME280;64791;0.000;0.000;2023-11-21T16:56:34;93173.75;;;8.91;59.98
76086;BME280;64791;0.000;0.000;2023-11-21T16:59:01;93178.00;;;8.85;59.84
76086;BME280;64791;0.000;0.000;2023-11-21T17:01:27;93166.25;;;8.84;60.33
76086;BME280;64791;0.000;0.000;2023-11-21T17:03:55;93165.16;;;8.80;59.64
76086;BME280;64791;0.000;0.000;2023-11-21T17:06:23;93167.75;;;8.78;60.08
76086;BME280;64791;0.000;0.000;2023-11-21T17:08:51;93171.59;;;8.75;60.47
76086;BME280;64791;0.000;0.000;2023-11-21T17:11:17;93149.81;;;8.69;60.15
76086;BME280;64791;0.000;0.000;2023-11-21T17:13:43;93154.94;;;8.65;60.04
76086;BME280;64791;0.000;0.000;2023-11-21T17:16:10;93149.66;;;8.60;60.52
76086;BME280;64791;0.000;0.000;2023-11-21T17:18:36;93157.50;;;8.56;60.69
76086;BME280;64791;0.000;0.000;2023-11-21T17:21:01;93151.31;;;8.55;60.50
76086;BME280;64791;0.000;0.000;2023-11-21T17:23:27;93166.69;;;8.58;60.21
76086;BME280;64791;0.000;0.000;2023-11-21T17:25:54;93173.81;;;8.54;60.25
76086;BME280;64791;0.000;0.000;2023-11-21T17:28:20;93180.44;;;8.51;60.18
76086;BME280;64791;0.000;0.000;2023-11-21T17:30:46;93175.28;;;8.47;60.44
76086;BME280;64791;0.000;0.000;2023-11-21T17:33:11;93171.47;;;8.43;60.85
76086;BME280;64791;0.000;0.000;2023-11-21T17:35:39;93168.00;;;8.42;60.48
76086;BME280;64791;0.000;0.000;2023-11-21T17:38:04;93160.31;;;8.33;60.54
76086;BME280;64791;0.000;0.000;2023-11-21T17:40:30;93168.19;;;8.29;60.81
76086;BME280;64791;0.000;0.000;2023-11-21T17:42:56;93158.28;;;8.26;60.80
76086;BME280;64791;0.000;0.000;2023-11-21T17:45:22;93161.97;;;8.21;61.26
76086;BME280;64791;0.000;0.000;2023-11-21T17:47:48;93166.91;;;8.15;61.37
76086;BME280;64791;0.000;0.000;2023-11-21T17:50:14;93163.25;;;8.05;61.76